KCIU/CIU METAR and TAF weather

Enter ICAO airport designator
Station Type Date Time Source
KCIU METAR 2020/02/21 14:56 UTC NOAA

KCIU 211456Z AUTO 25012G17KT 10SM CLR M04/M09 A3021 RMK AO2 SLP246 T10391089 56008 FZRANO


Station Type Date Time Source
KCIU Decoded METAR 2020/02/21 14:56 UTC NOAA

Sault Ste Marie, Chippewa County International Airport, MI, United States (KCIU) 46-15N 084-28W
Feb 21, 2020 - 09:56 AM EST / 2020.02.21 1456 UTC
Wind: from the WSW (250 degrees) at 14 MPH (12 KT) gusting to 20 MPH (17 KT):0
Visibility: 10 mile(s):0
Sky conditions: clear
Temperature: 25.0 F (-3.9 C)
Windchill: 12 F (-11 C):1
Dew Point: 16.0 F (-8.9 C)
Relative Humidity: 68%
Pressure (altimeter): 30.21 in. Hg (1023 hPa)
Pressure tendency: 0.02 inches (0.8 hPa) lower than three hours ago
ob: KCIU 211456Z AUTO 25012G17KT 10SM CLR M04/M09 A3021 RMK AO2 SLP246 T10391089 56008 FZRANO
cycle: 15

Station Type Date Time Source
KCIU TAF UTC NOAA

Error!

Example: see airport list